createdAt,value
2022-11-09T00:01:04.875Z,10.07
2022-11-09T00:03:33.490Z,10.43
2022-11-09T00:06:01.327Z,9.98
2022-11-09T00:08:29.407Z,9.20
2022-11-09T00:11:05.969Z,9.65
2022-11-09T00:13:37.830Z,9.35
2022-11-09T00:16:06.904Z,9.13
2022-11-09T00:18:35.910Z,9.52
2022-11-09T00:21:07.550Z,9.65
2022-11-09T00:23:36.958Z,10.20
2022-11-09T00:26:06.691Z,9.52
2022-11-09T00:28:34.675Z,8.88
2022-11-09T00:31:08.238Z,11.15
2022-11-09T00:33:36.524Z,9.75
2022-11-09T00:36:08.043Z,10.70
2022-11-09T00:38:36.886Z,9.77
2022-11-09T00:41:07.587Z,8.88
2022-11-09T00:43:35.185Z,9.65
2022-11-09T00:46:03.214Z,9.55
2022-11-09T00:48:31.211Z,11.00
2022-11-09T00:50:59.476Z,9.73
2022-11-09T00:53:27.886Z,9.45
2022-11-09T00:55:55.439Z,9.48
2022-11-09T00:58:24.728Z,9.43
2022-11-09T01:00:53.898Z,10.00
2022-11-09T01:03:22.229Z,11.18
2022-11-09T01:05:50.278Z,11.07
2022-11-09T01:08:19.068Z,11.32
2022-11-09T01:10:48.952Z,11.63
2022-11-09T01:13:19.208Z,10.52
2022-11-09T01:15:53.065Z,11.20
2022-11-09T01:18:21.957Z,24.15
2022-11-09T01:20:50.639Z,13.45
2022-11-09T01:23:20.770Z,14.27
2022-11-09T01:25:49.091Z,12.68
2022-11-09T01:28:17.046Z,13.80
2022-11-09T01:30:44.580Z,12.45
2022-11-09T01:33:12.346Z,13.15
2022-11-09T01:35:41.093Z,14.38
2022-11-09T01:38:10.056Z,12.05
2022-11-09T01:40:40.134Z,13.05
2022-11-09T01:43:29.810Z,13.23
2022-11-09T01:46:56.184Z,12.30
2022-11-09T01:49:50.272Z,13.15
2022-11-09T01:52:25.750Z,12.00
2022-11-09T01:55:03.210Z,10.85
2022-11-09T01:57:38.541Z,12.98
2022-11-09T02:00:12.708Z,12.80
2022-11-09T02:02:48.314Z,13.50
2022-11-09T02:05:22.126Z,14.30
2022-11-09T02:07:53.135Z,13.65
2022-11-09T02:10:37.943Z,13.60
2022-11-09T02:13:07.820Z,10.32
2022-11-09T02:15:45.460Z,13.75
2022-11-09T02:20:51.120Z,8.98
2022-11-09T02:23:20.358Z,7.97
2022-11-09T02:26:00.185Z,8.05
2022-11-09T02:28:29.005Z,9.90
2022-11-09T02:30:57.778Z,8.88
2022-11-09T02:33:26.388Z,8.32
2022-11-09T02:35:55.225Z,8.48
2022-11-09T02:38:23.245Z,8.57
2022-11-09T02:40:52.244Z,9.23
2022-11-09T02:43:20.468Z,9.35
2022-11-09T02:45:48.936Z,12.23
2022-11-09T02:48:16.912Z,9.43
2022-11-09T02:50:44.470Z,9.98
2022-11-09T02:53:11.981Z,8.98
2022-11-09T02:55:43.493Z,8.02
2022-11-09T02:58:11.298Z,12.38
2022-11-09T03:00:40.884Z,9.50
2022-11-09T03:03:09.356Z,9.73
2022-11-09T03:05:37.901Z,8.48
2022-11-09T03:08:06.581Z,9.70
2022-11-09T03:10:36.499Z,9.13
2022-11-09T03:13:04.223Z,9.73
2022-11-09T03:15:31.765Z,8.50
2022-11-09T03:18:00.075Z,8.85
2022-11-09T03:20:27.601Z,8.60
2022-11-09T03:22:59.430Z,8.88
2022-11-09T03:25:28.729Z,8.60
2022-11-09T03:28:05.183Z,11.25
2022-11-09T03:30:33.561Z,10.77
2022-11-09T03:33:03.677Z,10.85
2022-11-09T03:35:32.278Z,10.38
2022-11-09T03:38:00.798Z,9.25
2022-11-09T03:40:28.919Z,8.20
2022-11-09T03:42:57.774Z,7.60
2022-11-09T03:45:27.912Z,6.70
2022-11-09T03:48:00.528Z,8.63
2022-11-09T03:50:31.737Z,6.53
2022-11-09T03:53:00.791Z,7.60
2022-11-09T03:55:29.020Z,7.32
2022-11-09T03:57:56.516Z,7.50
2022-11-09T04:00:24.355Z,7.28
2022-11-09T04:02:52.283Z,7.15
2022-11-09T04:05:20.263Z,8.75
2022-11-09T04:07:50.060Z,7.82
2022-11-09T04:10:19.065Z,7.65
2022-11-09T04:12:46.808Z,8.45
2022-11-09T04:15:15.085Z,9.85
2022-11-09T04:17:44.803Z,8.88
2022-11-09T04:20:12.581Z,8.90
2022-11-09T04:22:40.504Z,8.60
2022-11-09T04:25:08.246Z,8.95
2022-11-09T04:27:36.194Z,9.15
2022-11-09T04:30:04.052Z,9.38
2022-11-09T04:32:31.712Z,10.35
2022-11-09T04:34:59.455Z,11.07
2022-11-09T04:37:27.067Z,10.93
2022-11-09T04:39:54.954Z,11.23
2022-11-09T04:42:23.043Z,13.07
2022-11-09T04:44:50.971Z,13.73
2022-11-09T04:47:18.994Z,14.45
2022-11-09T04:49:46.923Z,12.55
2022-11-09T04:52:14.904Z,12.50
2022-11-09T04:54:42.397Z,13.77
2022-11-09T04:57:09.911Z,14.63
2022-11-09T04:59:37.505Z,12.70
2022-11-09T05:02:05.030Z,13.07
2022-11-09T05:04:32.544Z,12.73
2022-11-09T05:07:00.127Z,12.88
2022-11-09T05:09:27.667Z,12.30
2022-11-09T05:11:55.238Z,13.45
2022-11-09T05:14:22.705Z,12.27
2022-11-09T05:16:50.206Z,14.82
2022-11-09T05:19:17.743Z,13.80
2022-11-09T05:21:45.255Z,14.27
2022-11-09T05:24:12.904Z,13.38
2022-11-09T05:26:42.441Z,13.85
2022-11-09T05:29:12.058Z,13.70
2022-11-09T05:31:40.283Z,12.93
2022-11-09T05:34:12.882Z,13.15
2022-11-09T05:36:40.895Z,13.75
2022-11-09T05:39:08.619Z,13.90
2022-11-09T05:41:36.718Z,13.80
2022-11-09T05:44:04.326Z,14.38
2022-11-09T05:46:33.478Z,12.82
2022-11-09T05:49:00.977Z,14.07
2022-11-09T05:51:28.941Z,15.15
2022-11-09T05:53:56.922Z,16.00
2022-11-09T05:56:25.013Z,13.90
2022-11-09T05:58:52.464Z,14.75
2022-11-09T06:01:20.159Z,14.30
2022-11-09T06:03:48.239Z,15.93
2022-11-09T06:06:16.776Z,16.15
2022-11-09T06:08:44.663Z,14.48
2022-11-09T06:11:17.007Z,15.40
2022-11-09T06:16:13.701Z,13.60
2022-11-09T06:18:41.614Z,12.82
2022-11-09T06:21:10.223Z,14.00
2022-11-09T06:23:37.828Z,13.55
2022-11-09T06:26:07.768Z,14.07
2022-11-09T06:28:37.606Z,14.20
2022-11-09T06:31:07.863Z,15.35
2022-11-09T06:33:36.304Z,14.43
2022-11-09T06:36:05.203Z,14.00
2022-11-09T06:38:33.169Z,16.00
2022-11-09T06:41:01.845Z,15.40
2022-11-09T06:43:29.980Z,14.18
2022-11-09T06:45:58.389Z,16.38
2022-11-09T06:48:26.031Z,15.63
2022-11-09T06:50:54.043Z,15.55
2022-11-09T06:53:21.845Z,15.85
2022-11-09T06:55:51.033Z,15.95
2022-11-09T06:58:19.903Z,14.95
2022-11-09T07:00:47.568Z,15.73
2022-11-09T07:03:16.789Z,16.90
2022-11-09T07:05:45.028Z,17.52
2022-11-09T07:08:14.552Z,17.33
2022-11-09T07:10:42.639Z,18.33
2022-11-09T07:13:10.549Z,18.25
2022-11-09T07:15:39.137Z,17.80
2022-11-09T07:18:08.687Z,18.88
2022-11-09T07:20:37.729Z,19.27
2022-11-09T07:23:05.345Z,20.95
2022-11-09T07:25:33.704Z,21.10
2022-11-09T07:28:05.862Z,19.77
2022-11-09T07:30:33.926Z,19.77
2022-11-09T07:33:09.332Z,21.50
2022-11-09T07:35:38.907Z,23.90
2022-11-09T07:38:07.010Z,25.40
2022-11-09T07:40:35.086Z,27.08
2022-11-09T07:43:05.215Z,27.35
2022-11-09T07:45:35.478Z,25.58
2022-11-09T07:48:07.926Z,24.63
2022-11-09T07:50:36.863Z,27.15
2022-11-09T07:53:07.216Z,26.75
2022-11-09T07:55:36.013Z,31.20
2022-11-09T07:58:09.426Z,31.77
2022-11-09T08:00:38.883Z,27.60
2022-11-09T08:03:07.537Z,32.63
2022-11-09T08:05:35.547Z,29.92
2022-11-09T08:08:07.397Z,31.77
2022-11-09T08:10:37.117Z,28.13
2022-11-09T08:13:08.406Z,27.55
2022-11-09T08:15:38.437Z,27.67
2022-11-09T08:18:13.740Z,31.10
2022-11-09T08:20:41.959Z,32.65
2022-11-09T08:23:18.503Z,29.83
2022-11-09T08:25:46.480Z,32.05
2022-11-09T08:28:16.358Z,38.53
2022-11-09T08:30:45.641Z,36.75
2022-11-09T08:33:13.967Z,33.17
2022-11-09T08:35:41.986Z,34.88
2022-11-09T08:38:09.913Z,33.40
2022-11-09T08:40:37.488Z,40.28
2022-11-09T08:43:07.406Z,37.85
2022-11-09T08:45:38.850Z,36.95
2022-11-09T08:48:08.289Z,38.78
2022-11-09T08:50:37.032Z,37.33
2022-11-09T08:53:05.880Z,36.97
2022-11-09T08:55:34.840Z,37.05
2022-11-09T08:58:03.724Z,36.10
2022-11-09T09:00:31.484Z,35.42
2022-11-09T09:02:59.229Z,34.58
2022-11-09T09:05:27.273Z,34.50
2022-11-09T09:07:54.825Z,37.35
2022-11-09T09:10:22.483Z,36.90
2022-11-09T09:12:50.494Z,37.17
2022-11-09T09:15:18.655Z,38.85
2022-11-09T09:17:47.194Z,38.78
2022-11-09T09:20:17.429Z,37.03
2022-11-09T09:22:45.107Z,38.35
2022-11-09T09:25:12.928Z,36.72
2022-11-09T09:27:40.935Z,37.22
2022-11-09T09:30:09.003Z,37.85
2022-11-09T09:32:37.243Z,40.28
2022-11-09T09:35:05.219Z,42.85
2022-11-09T09:37:32.703Z,39.53
2022-11-09T09:40:00.713Z,40.97
2022-11-09T09:42:36.278Z,39.63
2022-11-09T09:45:10.024Z,40.45
2022-11-09T09:47:54.882Z,39.97
2022-11-09T09:50:30.653Z,41.38
2022-11-09T09:53:24.711Z,41.30
2022-11-09T09:56:04.067Z,41.85
2022-11-09T09:58:34.255Z,42.00
2022-11-09T10:01:35.090Z,42.30
2022-11-09T10:04:03.616Z,44.55
2022-11-09T10:06:40.742Z,43.80
2022-11-09T10:09:32.887Z,46.25
2022-11-09T10:12:05.521Z,44.13
2022-11-09T10:15:06.663Z,45.33
2022-11-09T10:17:43.795Z,44.85
2022-11-09T10:20:30.343Z,49.15
2022-11-09T10:23:19.517Z,47.80
2022-11-09T10:26:12.911Z,45.17
2022-11-09T10:29:13.792Z,47.58
2022-11-09T10:31:35.080Z,46.50
2022-11-09T10:34:16.034Z,45.65
2022-11-09T10:36:59.055Z,48.33
2022-11-09T10:39:29.821Z,46.15
2022-11-09T10:42:15.755Z,44.72
2022-11-09T10:45:12.992Z,43.25
2022-11-09T10:48:00.539Z,46.38
2022-11-09T10:50:50.023Z,45.67
2022-11-09T10:53:36.050Z,47.17
2022-11-09T10:56:22.307Z,47.28
2022-11-09T10:59:29.563Z,46.03
2022-11-09T11:02:42.996Z,44.83
2022-11-09T11:05:30.748Z,40.20
2022-11-09T11:08:32.346Z,37.65
2022-11-09T11:11:39.083Z,37.80
2022-11-09T11:14:30.889Z,38.05
2022-11-09T11:17:37.136Z,43.15
2022-11-09T11:20:25.576Z,42.20
2022-11-09T11:23:24.495Z,44.67
2022-11-09T11:26:23.293Z,44.28
2022-11-09T11:29:39.213Z,44.20
2022-11-09T11:32:25.644Z,38.53
2022-11-09T11:35:19.070Z,39.05
2022-11-09T11:38:11.315Z,36.95
2022-11-09T11:41:15.903Z,37.97
2022-11-09T11:47:34.058Z,39.35
2022-11-09T11:50:36.237Z,40.45
2022-11-09T11:53:35.633Z,38.38
2022-11-09T11:56:32.389Z,39.55
2022-11-09T11:59:24.595Z,40.08
2022-11-09T12:02:32.589Z,41.53
2022-11-09T12:05:57.798Z,39.08
2022-11-09T12:11:55.630Z,39.58
2022-11-09T12:15:03.988Z,43.78
2022-11-09T12:18:05.536Z,47.47
2022-11-09T12:21:15.834Z,47.80
2022-11-09T12:24:50.219Z,43.83
2022-11-09T12:27:36.550Z,44.13
2022-11-09T12:30:26.470Z,42.05
2022-11-09T12:33:33.486Z,42.40
2022-11-09T12:36:27.265Z,43.67
2022-11-09T12:39:26.056Z,41.60
2022-11-09T12:42:26.979Z,43.33
2022-11-09T12:45:12.677Z,44.33
2022-11-09T12:48:04.749Z,45.55
2022-11-09T12:50:53.072Z,38.38
2022-11-09T12:53:39.767Z,40.13
2022-11-09T12:56:40.767Z,37.13
2022-11-09T12:59:26.786Z,35.08
2022-11-09T13:02:30.250Z,34.90
2022-11-09T13:05:32.348Z,39.25
2022-11-09T13:08:24.514Z,37.85
2022-11-09T13:11:25.991Z,39.80
2022-11-09T13:14:30.222Z,39.00
2022-11-09T13:17:28.644Z,34.90
2022-11-09T13:24:03.613Z,32.55
2022-11-09T13:26:50.978Z,32.15
2022-11-09T13:29:39.656Z,35.00
2022-11-09T13:32:28.334Z,37.50
2022-11-09T13:35:42.295Z,39.38
2022-11-09T13:38:33.687Z,33.60
2022-11-09T13:41:34.659Z,34.45
2022-11-09T13:44:27.080Z,31.75
2022-11-09T13:47:49.900Z,33.53
2022-11-09T13:50:36.322Z,28.23
2022-11-09T13:53:38.018Z,32.65
2022-11-09T13:56:30.007Z,28.27
2022-11-09T13:59:25.092Z,32.38
2022-11-09T14:02:25.670Z,30.67
2022-11-09T14:05:44.548Z,29.23
2022-11-09T14:08:40.442Z,33.38
2022-11-09T14:11:51.239Z,32.15
2022-11-09T14:14:59.952Z,35.53
2022-11-09T14:17:46.826Z,35.47
2022-11-09T14:20:46.506Z,35.22
2022-11-09T14:23:33.809Z,34.70
2022-11-09T14:26:26.208Z,36.85
2022-11-09T14:29:25.078Z,35.05
2022-11-09T14:32:36.769Z,34.88
2022-11-09T14:35:27.538Z,34.00
2022-11-09T14:38:21.885Z,33.78
2022-11-09T14:41:28.196Z,32.97
2022-11-09T14:44:35.846Z,31.25
2022-11-09T14:47:30.736Z,33.47
2022-11-09T14:53:22.757Z,30.90
2022-11-09T14:56:12.325Z,30.73
2022-11-09T14:58:58.992Z,28.27
2022-11-09T15:02:03.005Z,28.23
2022-11-09T15:04:53.774Z,27.60
2022-11-09T15:07:40.385Z,27.17
2022-11-09T15:10:29.701Z,26.85
2022-11-09T15:13:16.168Z,25.30
2022-11-09T15:16:03.050Z,25.63
2022-11-09T15:18:50.065Z,24.40
2022-11-09T15:21:38.458Z,25.02
2022-11-09T15:24:26.841Z,21.80
2022-11-09T15:27:33.822Z,21.23
2022-11-09T15:30:45.812Z,22.85
2022-11-09T15:33:35.998Z,20.15
2022-11-09T15:36:24.550Z,17.30
2022-11-09T15:39:19.360Z,19.10
2022-11-09T15:42:06.506Z,18.98
2022-11-09T15:44:57.798Z,19.63
2022-11-09T15:48:10.412Z,16.35
2022-11-09T15:50:57.205Z,16.00
2022-11-09T15:53:43.848Z,17.23
2022-11-09T15:56:30.696Z,15.20
2022-11-09T15:59:23.848Z,17.05
2022-11-09T16:02:12.098Z,17.52
2022-11-09T16:04:58.169Z,18.35
2022-11-09T16:07:52.777Z,19.20
2022-11-09T16:13:25.869Z,16.60
2022-11-09T16:16:15.565Z,17.08
2022-11-09T16:19:01.960Z,18.15
2022-11-09T16:21:48.285Z,17.33
2022-11-09T16:24:37.423Z,16.20
2022-11-09T16:27:51.828Z,16.30
2022-11-09T16:30:31.127Z,16.58
2022-11-09T16:33:17.686Z,19.08
2022-11-09T16:36:06.703Z,20.50
2022-11-09T16:38:54.637Z,17.20
2022-11-09T16:41:42.865Z,15.60
2022-11-09T16:44:34.288Z,16.30
2022-11-09T16:47:21.971Z,16.02
2022-11-09T16:50:09.196Z,18.35
2022-11-09T16:52:55.654Z,16.98
2022-11-09T16:55:42.401Z,19.55
2022-11-09T16:58:29.902Z,22.05
2022-11-09T17:01:19.254Z,18.73
2022-11-09T17:04:08.741Z,18.98
2022-11-09T17:06:55.060Z,16.30
2022-11-09T17:09:41.105Z,16.83
2022-11-09T17:12:26.933Z,16.67
2022-11-09T17:15:13.214Z,16.40
2022-11-09T17:17:59.398Z,15.65
2022-11-09T17:20:50.468Z,15.98
2022-11-09T17:23:37.286Z,14.35
2022-11-09T17:26:25.813Z,17.33
2022-11-09T17:29:12.769Z,31.65
2022-11-09T17:31:58.861Z,18.05
2022-11-09T17:34:44.861Z,17.30
2022-11-09T17:37:33.743Z,18.05
2022-11-09T17:40:21.401Z,19.73
2022-11-09T17:43:07.977Z,18.75
2022-11-09T17:45:54.175Z,17.92
2022-11-09T17:48:42.775Z,19.90
2022-11-09T17:51:30.252Z,20.02
2022-11-09T17:54:16.778Z,19.40
2022-11-09T17:57:04.221Z,18.05
2022-11-09T17:59:50.051Z,18.63
2022-11-09T18:02:36.824Z,19.25
2022-11-09T18:05:23.048Z,18.67
2022-11-09T18:08:11.308Z,19.90
2022-11-09T18:10:59.282Z,20.08
2022-11-09T18:13:45.391Z,20.52
2022-11-09T18:16:32.045Z,19.92
2022-11-09T18:19:18.290Z,24.23
2022-11-09T18:22:07.565Z,23.45
2022-11-09T18:24:57.844Z,21.38
2022-11-09T18:27:44.672Z,19.42
2022-11-09T18:30:31.978Z,24.05
2022-11-09T18:33:18.833Z,23.25
2022-11-09T18:36:11.636Z,23.73
2022-11-09T18:38:58.114Z,23.73
2022-11-09T18:41:44.632Z,26.58
2022-11-09T18:44:30.831Z,26.20
2022-11-09T18:47:16.870Z,26.73
2022-11-09T18:50:03.645Z,24.02
2022-11-09T18:52:49.677Z,23.30
2022-11-09T18:55:35.900Z,25.33
2022-11-09T18:58:23.309Z,24.50
2022-11-09T19:01:09.891Z,24.05
2022-11-09T19:03:59.759Z,25.33
2022-11-09T19:06:47.148Z,27.30
2022-11-09T19:09:38.540Z,27.73
2022-11-09T19:12:25.748Z,27.63
2022-11-09T19:15:11.668Z,26.55
2022-11-09T19:18:02.729Z,27.65
2022-11-09T19:20:49.432Z,27.60
2022-11-09T19:23:35.470Z,32.47
2022-11-09T19:26:22.509Z,32.13
2022-11-09T19:29:11.416Z,31.20
2022-11-09T19:31:57.752Z,31.58
2022-11-09T19:34:43.747Z,32.67
2022-11-09T19:37:30.519Z,33.35
2022-11-09T19:40:16.983Z,37.13
2022-11-09T19:43:03.562Z,32.22
2022-11-09T19:45:49.905Z,29.17
2022-11-09T19:48:36.067Z,29.45
2022-11-09T19:51:23.287Z,29.00
2022-11-09T19:54:11.883Z,30.42
2022-11-09T19:56:57.884Z,29.70
2022-11-09T19:59:43.955Z,28.88
2022-11-09T20:02:31.204Z,27.20
2022-11-09T20:05:17.591Z,28.95
2022-11-09T20:08:05.170Z,29.27
2022-11-09T20:10:52.375Z,30.33
2022-11-09T20:13:40.730Z,30.58
2022-11-09T20:16:27.233Z,28.40
2022-11-09T20:19:14.639Z,26.33
2022-11-09T20:22:00.991Z,26.73
2022-11-09T20:24:47.328Z,28.23
2022-11-09T20:27:33.807Z,26.85
2022-11-09T20:30:20.890Z,26.30
2022-11-09T20:33:07.395Z,28.63
2022-11-09T20:35:56.895Z,26.98
2022-11-09T20:38:44.668Z,43.58
2022-11-09T20:41:32.783Z,28.95
2022-11-09T20:44:18.820Z,27.58
2022-11-09T20:47:05.242Z,28.67
2022-11-09T20:49:51.972Z,32.47
2022-11-09T20:52:39.060Z,28.10
2022-11-09T20:55:25.658Z,29.90
2022-11-09T20:58:13.446Z,30.90
2022-11-09T21:01:01.572Z,30.60
2022-11-09T21:03:49.799Z,30.83
2022-11-09T21:06:36.556Z,28.55
2022-11-09T21:09:22.907Z,28.70
2022-11-09T21:12:21.315Z,33.03
2022-11-09T21:15:08.822Z,29.02
2022-11-09T21:17:55.085Z,33.88
2022-11-09T21:20:41.868Z,29.27
2022-11-09T21:23:28.435Z,36.15
2022-11-09T21:26:34.173Z,31.45
2022-11-09T21:29:42.094Z,38.63
2022-11-09T21:32:30.674Z,33.40
2022-11-09T21:35:18.993Z,35.40
2022-11-09T21:38:05.666Z,35.47
2022-11-09T21:40:52.330Z,39.15
2022-11-09T21:43:38.505Z,38.35
2022-11-09T21:46:25.274Z,40.35
2022-11-09T21:49:13.673Z,39.05
2022-11-09T21:52:00.112Z,41.80
2022-11-09T21:54:46.415Z,38.28
2022-11-09T21:57:32.442Z,40.38
2022-11-09T22:00:18.895Z,41.28
2022-11-09T22:03:04.685Z,41.30
2022-11-09T22:05:51.323Z,42.55
2022-11-09T22:08:37.630Z,40.72
2022-11-09T22:11:46.084Z,39.83
2022-11-09T22:14:51.538Z,39.53
2022-11-09T22:17:38.283Z,38.97
2022-11-09T22:20:42.940Z,38.72
2022-11-09T22:26:16.423Z,34.70
2022-11-09T22:29:03.683Z,33.45
2022-11-09T22:31:50.016Z,32.50
2022-11-09T22:34:36.822Z,31.83
2022-11-09T22:37:23.386Z,32.10
2022-11-09T22:40:10.634Z,31.30
2022-11-09T22:42:57.318Z,30.75
2022-11-09T22:45:44.024Z,33.50
2022-11-09T22:48:34.321Z,32.38
2022-11-09T22:51:21.030Z,32.15
2022-11-09T22:54:07.518Z,31.25
2022-11-09T22:56:56.693Z,31.55
2022-11-09T22:59:42.874Z,31.45
2022-11-09T23:02:29.061Z,31.63
2022-11-09T23:05:16.029Z,31.77
2022-11-09T23:08:01.934Z,100.97
2022-11-09T23:10:55.426Z,97.72
2022-11-09T23:13:42.356Z,99.60
2022-11-09T23:16:28.850Z,29.35
2022-11-09T23:19:15.574Z,59.65
2022-11-09T23:22:02.344Z,28.77
2022-11-09T23:25:07.618Z,141.32
2022-11-09T23:27:54.680Z,28.88
2022-11-09T23:30:41.082Z,133.82
2022-11-09T23:33:28.458Z,84.20
2022-11-09T23:36:14.554Z,29.17
2022-11-09T23:39:00.878Z,61.28
2022-11-09T23:41:46.987Z,27.60
2022-11-09T23:44:33.280Z,26.02
2022-11-09T23:47:19.253Z,26.83
2022-11-09T23:50:06.408Z,25.75
2022-11-09T23:52:55.602Z,23.75
2022-11-09T23:55:42.358Z,24.90
2022-11-09T23:58:28.746Z,23.73
